sensor_id;sensor_type;location;lat;lon;timestamp;P1;durP1;ratioP1;P2;durP2;ratioP2
12968;SDS011;6549;53.128;8.182;2024-01-30T00:02:21;22.10;;;14.77;;
12968;SDS011;6549;53.128;8.182;2024-01-30T00:05:21;23.13;;;15.15;;
12968;SDS011;6549;53.128;8.182;2024-01-30T00:08:21;21.63;;;14.13;;
12968;SDS011;6549;53.128;8.182;2024-01-30T00:11:22;21.33;;;14.85;;
12968;SDS011;6549;53.128;8.182;2024-01-30T00:14:23;21.17;;;14.05;;
12968;SDS011;6549;53.128;8.182;2024-01-30T00:17:23;21.00;;;14.70;;
12968;SDS011;6549;53.128;8.182;2024-01-30T00:20:25;19.80;;;13.97;;
12968;SDS011;6549;53.128;8.182;2024-01-30T00:23:25;20.27;;;13.93;;
12968;SDS011;6549;53.128;8.182;2024-01-30T00:26:25;22.60;;;14.35;;
12968;SDS011;6549;53.128;8.182;2024-01-30T00:29:26;21.17;;;14.05;;
12968;SDS011;6549;53.128;8.182;2024-01-30T00:32:30;22.98;;;14.80;;
12968;SDS011;6549;53.128;8.182;2024-01-30T00:35:30;21.58;;;14.10;;
12968;SDS011;6549;53.128;8.182;2024-01-30T00:38:31;21.05;;;14.20;;
12968;SDS011;6549;53.128;8.182;2024-01-30T00:41:31;19.67;;;13.68;;
12968;SDS011;6549;53.128;8.182;2024-01-30T00:44:34;21.98;;;13.50;;
12968;SDS011;6549;53.128;8.182;2024-01-30T00:47:35;19.50;;;13.70;;
12968;SDS011;6549;53.128;8.182;2024-01-30T00:50:35;19.73;;;13.75;;
12968;SDS011;6549;53.128;8.182;2024-01-30T00:53:36;21.73;;;15.05;;
12968;SDS011;6549;53.128;8.182;2024-01-30T00:56:36;20.42;;;14.88;;
12968;SDS011;6549;53.128;8.182;2024-01-30T00:59:36;19.05;;;13.73;;
12968;SDS011;6549;53.128;8.182;2024-01-30T01:02:37;19.98;;;14.23;;
12968;SDS011;6549;53.128;8.182;2024-01-30T01:05:37;21.13;;;14.80;;
12968;SDS011;6549;53.128;8.182;2024-01-30T01:08:37;23.45;;;15.52;;
12968;SDS011;6549;53.128;8.182;2024-01-30T01:11:38;20.70;;;14.23;;
12968;SDS011;6549;53.128;8.182;2024-01-30T01:14:38;21.63;;;14.50;;
12968;SDS011;6549;53.128;8.182;2024-01-30T01:17:39;22.75;;;15.25;;
12968;SDS011;6549;53.128;8.182;2024-01-30T01:20:40;21.08;;;13.98;;
12968;SDS011;6549;53.128;8.182;2024-01-30T01:23:40;21.48;;;14.52;;
12968;SDS011;6549;53.128;8.182;2024-01-30T01:26:40;20.02;;;13.82;;
12968;SDS011;6549;53.128;8.182;2024-01-30T01:29:41;20.90;;;14.40;;
12968;SDS011;6549;53.128;8.182;2024-01-30T01:32:41;20.98;;;14.85;;
12968;SDS011;6549;53.128;8.182;2024-01-30T01:35:49;19.20;;;14.18;;
12968;SDS011;6549;53.128;8.182;2024-01-30T01:38:50;19.88;;;14.18;;
12968;SDS011;6549;53.128;8.182;2024-01-30T01:41:50;19.73;;;13.63;;
12968;SDS011;6549;53.128;8.182;2024-01-30T01:44:51;20.83;;;14.45;;
12968;SDS011;6549;53.128;8.182;2024-01-30T01:47:51;18.95;;;13.48;;
12968;SDS011;6549;53.128;8.182;2024-01-30T01:50:52;19.92;;;13.77;;
12968;SDS011;6549;53.128;8.182;2024-01-30T01:53:53;20.08;;;13.98;;
12968;SDS011;6549;53.128;8.182;2024-01-30T01:56:54;21.13;;;12.98;;
12968;SDS011;6549;53.128;8.182;2024-01-30T01:59:55;19.85;;;13.77;;
12968;SDS011;6549;53.128;8.182;2024-01-30T02:02:55;19.65;;;14.13;;
12968;SDS011;6549;53.128;8.182;2024-01-30T02:05:56;22.00;;;15.05;;
12968;SDS011;6549;53.128;8.182;2024-01-30T02:08:57;21.42;;;13.82;;
12968;SDS011;6549;53.128;8.182;2024-01-30T02:11:57;20.13;;;13.27;;
12968;SDS011;6549;53.128;8.182;2024-01-30T02:14:57;20.30;;;14.48;;
12968;SDS011;6549;53.128;8.182;2024-01-30T02:17:58;19.05;;;13.65;;
12968;SDS011;6549;53.128;8.182;2024-01-30T02:20:58;20.88;;;15.15;;
12968;SDS011;6549;53.128;8.182;2024-01-30T02:24:04;19.88;;;13.43;;
12968;SDS011;6549;53.128;8.182;2024-01-30T02:27:05;21.47;;;14.57;;
12968;SDS011;6549;53.128;8.182;2024-01-30T02:30:06;20.17;;;13.73;;
12968;SDS011;6549;53.128;8.182;2024-01-30T02:33:06;20.58;;;13.85;;
12968;SDS011;6549;53.128;8.182;2024-01-30T02:36:07;21.70;;;14.27;;
12968;SDS011;6549;53.128;8.182;2024-01-30T02:39:07;24.23;;;14.32;;
12968;SDS011;6549;53.128;8.182;2024-01-30T02:42:08;19.00;;;14.05;;
12968;SDS011;6549;53.128;8.182;2024-01-30T02:45:08;20.65;;;14.85;;
12968;SDS011;6549;53.128;8.182;2024-01-30T02:48:09;21.08;;;14.45;;
12968;SDS011;6549;53.128;8.182;2024-01-30T02:51:09;17.83;;;13.30;;
12968;SDS011;6549;53.128;8.182;2024-01-30T02:54:10;21.27;;;14.75;;
12968;SDS011;6549;53.128;8.182;2024-01-30T02:57:10;20.50;;;13.93;;
12968;SDS011;6549;53.128;8.182;2024-01-30T03:00:11;19.85;;;13.70;;
12968;SDS011;6549;53.128;8.182;2024-01-30T03:03:11;18.70;;;13.20;;
12968;SDS011;6549;53.128;8.182;2024-01-30T03:06:12;20.55;;;13.40;;
12968;SDS011;6549;53.128;8.182;2024-01-30T03:09:12;21.40;;;13.73;;
12968;SDS011;6549;53.128;8.182;2024-01-30T03:12:13;19.83;;;13.88;;
12968;SDS011;6549;53.128;8.182;2024-01-30T03:15:14;17.83;;;12.95;;
12968;SDS011;6549;53.128;8.182;2024-01-30T03:18:14;19.13;;;13.88;;
12968;SDS011;6549;53.128;8.182;2024-01-30T03:21:14;18.83;;;14.43;;
12968;SDS011;6549;53.128;8.182;2024-01-30T03:24:15;22.95;;;13.48;;
12968;SDS011;6549;53.128;8.182;2024-01-30T03:27:15;20.17;;;14.00;;
12968;SDS011;6549;53.128;8.182;2024-01-30T03:30:15;22.70;;;14.52;;
12968;SDS011;6549;53.128;8.182;2024-01-30T03:33:16;18.85;;;13.95;;
12968;SDS011;6549;53.128;8.182;2024-01-30T03:36:16;20.58;;;14.18;;
12968;SDS011;6549;53.128;8.182;2024-01-30T03:39:16;18.10;;;13.32;;
12968;SDS011;6549;53.128;8.182;2024-01-30T03:42:17;20.77;;;13.77;;
12968;SDS011;6549;53.128;8.182;2024-01-30T03:45:17;21.00;;;14.88;;
12968;SDS011;6549;53.128;8.182;2024-01-30T03:48:20;20.57;;;14.20;;
12968;SDS011;6549;53.128;8.182;2024-01-30T03:51:21;20.98;;;14.30;;
12968;SDS011;6549;53.128;8.182;2024-01-30T03:54:21;19.60;;;13.77;;
12968;SDS011;6549;53.128;8.182;2024-01-30T03:57:21;21.02;;;14.25;;
12968;SDS011;6549;53.128;8.182;2024-01-30T04:00:22;19.17;;;14.48;;
12968;SDS011;6549;53.128;8.182;2024-01-30T04:03:22;19.13;;;14.05;;
12968;SDS011;6549;53.128;8.182;2024-01-30T04:06:22;20.30;;;14.23;;
12968;SDS011;6549;53.128;8.182;2024-01-30T04:09:23;20.30;;;14.68;;
12968;SDS011;6549;53.128;8.182;2024-01-30T04:12:23;19.55;;;13.93;;
12968;SDS011;6549;53.128;8.182;2024-01-30T04:15:23;19.50;;;13.88;;
12968;SDS011;6549;53.128;8.182;2024-01-30T04:18:24;23.40;;;14.48;;
12968;SDS011;6549;53.128;8.182;2024-01-30T04:21:24;21.67;;;14.18;;
12968;SDS011;6549;53.128;8.182;2024-01-30T04:24:24;19.95;;;14.70;;
12968;SDS011;6549;53.128;8.182;2024-01-30T04:27:25;19.90;;;14.38;;
12968;SDS011;6549;53.128;8.182;2024-01-30T04:30:25;20.58;;;13.80;;
12968;SDS011;6549;53.128;8.182;2024-01-30T04:33:25;22.02;;;14.40;;
12968;SDS011;6549;53.128;8.182;2024-01-30T04:36:26;19.83;;;13.70;;
12968;SDS011;6549;53.128;8.182;2024-01-30T04:39:26;19.10;;;13.65;;
12968;SDS011;6549;53.128;8.182;2024-01-30T04:42:26;24.00;;;14.00;;
12968;SDS011;6549;53.128;8.182;2024-01-30T04:45:27;19.80;;;13.80;;
12968;SDS011;6549;53.128;8.182;2024-01-30T04:48:27;20.13;;;14.98;;
12968;SDS011;6549;53.128;8.182;2024-01-30T04:51:27;22.65;;;14.43;;
12968;SDS011;6549;53.128;8.182;2024-01-30T04:54:28;19.08;;;14.13;;
12968;SDS011;6549;53.128;8.182;2024-01-30T04:57:28;18.70;;;14.63;;
12968;SDS011;6549;53.128;8.182;2024-01-30T05:00:29;19.52;;;14.10;;
12968;SDS011;6549;53.128;8.182;2024-01-30T05:03:32;20.98;;;14.70;;
12968;SDS011;6549;53.128;8.182;2024-01-30T05:06:33;21.10;;;14.93;;
12968;SDS011;6549;53.128;8.182;2024-01-30T05:09:34;19.95;;;14.10;;
12968;SDS011;6549;53.128;8.182;2024-01-30T05:12:34;20.20;;;14.80;;
12968;SDS011;6549;53.128;8.182;2024-01-30T05:15:34;21.42;;;14.45;;
12968;SDS011;6549;53.128;8.182;2024-01-30T05:18:34;22.25;;;14.13;;
12968;SDS011;6549;53.128;8.182;2024-01-30T05:21:35;20.52;;;14.30;;
12968;SDS011;6549;53.128;8.182;2024-01-30T05:24:36;21.00;;;14.13;;
12968;SDS011;6549;53.128;8.182;2024-01-30T05:27:37;19.25;;;13.95;;
12968;SDS011;6549;53.128;8.182;2024-01-30T05:30:37;19.10;;;14.25;;
12968;SDS011;6549;53.128;8.182;2024-01-30T05:33:37;20.48;;;14.25;;
12968;SDS011;6549;53.128;8.182;2024-01-30T05:36:38;19.15;;;13.77;;
12968;SDS011;6549;53.128;8.182;2024-01-30T05:39:38;19.38;;;14.23;;
12968;SDS011;6549;53.128;8.182;2024-01-30T05:42:38;20.67;;;14.10;;
12968;SDS011;6549;53.128;8.182;2024-01-30T05:45:39;20.48;;;13.45;;
12968;SDS011;6549;53.128;8.182;2024-01-30T05:48:39;21.55;;;14.23;;
12968;SDS011;6549;53.128;8.182;2024-01-30T05:51:39;18.08;;;13.32;;
12968;SDS011;6549;53.128;8.182;2024-01-30T05:54:40;18.88;;;13.82;;
12968;SDS011;6549;53.128;8.182;2024-01-30T05:57:40;21.05;;;14.90;;
12968;SDS011;6549;53.128;8.182;2024-01-30T06:00:41;21.73;;;14.13;;
12968;SDS011;6549;53.128;8.182;2024-01-30T06:03:41;20.23;;;14.50;;
12968;SDS011;6549;53.128;8.182;2024-01-30T06:06:43;22.60;;;14.07;;
12968;SDS011;6549;53.128;8.182;2024-01-30T06:09:43;22.08;;;14.27;;
12968;SDS011;6549;53.128;8.182;2024-01-30T06:12:44;21.02;;;14.25;;
12968;SDS011;6549;53.128;8.182;2024-01-30T06:15:44;19.55;;;14.18;;
12968;SDS011;6549;53.128;8.182;2024-01-30T06:18:44;21.13;;;14.48;;
12968;SDS011;6549;53.128;8.182;2024-01-30T06:21:45;21.40;;;15.38;;
12968;SDS011;6549;53.128;8.182;2024-01-30T06:24:45;19.63;;;14.68;;
12968;SDS011;6549;53.128;8.182;2024-01-30T06:27:47;22.35;;;14.65;;
12968;SDS011;6549;53.128;8.182;2024-01-30T06:30:48;21.08;;;13.70;;
12968;SDS011;6549;53.128;8.182;2024-01-30T06:33:49;19.88;;;14.38;;
12968;SDS011;6549;53.128;8.182;2024-01-30T06:36:50;23.92;;;14.30;;
12968;SDS011;6549;53.128;8.182;2024-01-30T06:39:50;20.88;;;14.57;;
12968;SDS011;6549;53.128;8.182;2024-01-30T06:42:51;23.02;;;14.50;;
12968;SDS011;6549;53.128;8.182;2024-01-30T06:45:51;24.23;;;15.20;;
12968;SDS011;6549;53.128;8.182;2024-01-30T06:48:51;19.92;;;13.93;;
12968;SDS011;6549;53.128;8.182;2024-01-30T06:51:52;22.27;;;14.40;;
12968;SDS011;6549;53.128;8.182;2024-01-30T06:54:52;20.38;;;14.52;;
12968;SDS011;6549;53.128;8.182;2024-01-30T06:57:52;19.25;;;13.27;;
12968;SDS011;6549;53.128;8.182;2024-01-30T07:00:53;19.08;;;14.43;;
12968;SDS011;6549;53.128;8.182;2024-01-30T07:03:54;20.67;;;14.85;;
12968;SDS011;6549;53.128;8.182;2024-01-30T07:06:55;21.60;;;13.95;;
12968;SDS011;6549;53.128;8.182;2024-01-30T07:09:55;20.88;;;14.95;;
12968;SDS011;6549;53.128;8.182;2024-01-30T07:12:59;20.90;;;14.40;;
12968;SDS011;6549;53.128;8.182;2024-01-30T07:16:00;20.13;;;14.45;;
12968;SDS011;6549;53.128;8.182;2024-01-30T07:19:01;21.38;;;14.50;;
12968;SDS011;6549;53.128;8.182;2024-01-30T07:22:01;23.65;;;14.32;;
12968;SDS011;6549;53.128;8.182;2024-01-30T07:25:01;19.15;;;13.63;;
12968;SDS011;6549;53.128;8.182;2024-01-30T07:28:02;20.98;;;13.55;;
12968;SDS011;6549;53.128;8.182;2024-01-30T07:31:02;20.50;;;13.68;;
12968;SDS011;6549;53.128;8.182;2024-01-30T07:34:03;19.58;;;13.43;;
12968;SDS011;6549;53.128;8.182;2024-01-30T07:37:03;20.17;;;15.18;;
12968;SDS011;6549;53.128;8.182;2024-01-30T07:40:04;21.77;;;14.38;;
12968;SDS011;6549;53.128;8.182;2024-01-30T07:43:05;19.40;;;13.82;;
12968;SDS011;6549;53.128;8.182;2024-01-30T07:46:05;21.15;;;14.38;;
12968;SDS011;6549;53.128;8.182;2024-01-30T07:49:06;22.35;;;14.35;;
12968;SDS011;6549;53.128;8.182;2024-01-30T07:52:06;24.17;;;15.07;;
12968;SDS011;6549;53.128;8.182;2024-01-30T07:55:07;21.58;;;13.43;;
12968;SDS011;6549;53.128;8.182;2024-01-30T07:58:08;24.25;;;14.55;;
12968;SDS011;6549;53.128;8.182;2024-01-30T08:01:08;20.70;;;13.98;;
12968;SDS011;6549;53.128;8.182;2024-01-30T08:04:09;22.52;;;14.52;;
12968;SDS011;6549;53.128;8.182;2024-01-30T08:07:09;20.13;;;14.15;;
12968;SDS011;6549;53.128;8.182;2024-01-30T08:10:11;18.10;;;13.18;;
12968;SDS011;6549;53.128;8.182;2024-01-30T08:13:12;20.55;;;14.00;;
12968;SDS011;6549;53.128;8.182;2024-01-30T08:16:12;19.33;;;13.20;;
12968;SDS011;6549;53.128;8.182;2024-01-30T08:19:14;18.83;;;13.00;;
12968;SDS011;6549;53.128;8.182;2024-01-30T08:22:15;19.65;;;13.57;;
12968;SDS011;6549;53.128;8.182;2024-01-30T08:25:15;18.05;;;12.38;;
12968;SDS011;6549;53.128;8.182;2024-01-30T08:28:15;19.35;;;13.70;;
12968;SDS011;6549;53.128;8.182;2024-01-30T08:31:15;18.70;;;12.98;;
12968;SDS011;6549;53.128;8.182;2024-01-30T08:34:16;21.42;;;13.30;;
12968;SDS011;6549;53.128;8.182;2024-01-30T08:37:16;19.10;;;12.98;;
12968;SDS011;6549;53.128;8.182;2024-01-30T08:40:16;18.45;;;12.32;;
12968;SDS011;6549;53.128;8.182;2024-01-30T08:43:17;19.42;;;12.63;;
12968;SDS011;6549;53.128;8.182;2024-01-30T08:46:18;20.23;;;13.05;;
12968;SDS011;6549;53.128;8.182;2024-01-30T08:49:19;20.23;;;13.20;;
12968;SDS011;6549;53.128;8.182;2024-01-30T08:52:20;17.85;;;12.05;;
12968;SDS011;6549;53.128;8.182;2024-01-30T08:55:20;18.13;;;11.40;;
12968;SDS011;6549;53.128;8.182;2024-01-30T08:58:21;20.00;;;13.40;;
12968;SDS011;6549;53.128;8.182;2024-01-30T09:01:21;19.38;;;12.93;;
12968;SDS011;6549;53.128;8.182;2024-01-30T09:04:21;17.75;;;11.85;;
12968;SDS011;6549;53.128;8.182;2024-01-30T09:07:22;20.48;;;12.57;;
12968;SDS011;6549;53.128;8.182;2024-01-30T09:10:22;16.80;;;12.23;;
12968;SDS011;6549;53.128;8.182;2024-01-30T09:13:23;19.05;;;12.32;;
12968;SDS011;6549;53.128;8.182;2024-01-30T09:16:23;19.60;;;12.38;;
12968;SDS011;6549;53.128;8.182;2024-01-30T09:19:23;19.92;;;12.40;;
12968;SDS011;6549;53.128;8.182;2024-01-30T09:22:24;18.33;;;12.15;;
12968;SDS011;6549;53.128;8.182;2024-01-30T09:25:24;16.63;;;12.10;;
12968;SDS011;6549;53.128;8.182;2024-01-30T09:28:25;18.85;;;11.70;;
12968;SDS011;6549;53.128;8.182;2024-01-30T09:31:25;20.38;;;11.75;;
12968;SDS011;6549;53.128;8.182;2024-01-30T09:34:25;17.38;;;11.68;;
12968;SDS011;6549;53.128;8.182;2024-01-30T09:37:26;19.17;;;11.40;;
12968;SDS011;6549;53.128;8.182;2024-01-30T09:40:26;16.00;;;11.55;;
12968;SDS011;6549;53.128;8.182;2024-01-30T09:43:27;16.25;;;10.95;;
12968;SDS011;6549;53.128;8.182;2024-01-30T09:46:32;16.35;;;11.10;;
12968;SDS011;6549;53.128;8.182;2024-01-30T09:49:34;18.27;;;12.02;;
12968;SDS011;6549;53.128;8.182;2024-01-30T09:52:35;16.40;;;12.35;;
12968;SDS011;6549;53.128;8.182;2024-01-30T09:55:36;17.02;;;11.35;;
12968;SDS011;6549;53.128;8.182;2024-01-30T09:58:37;14.90;;;10.88;;
12968;SDS011;6549;53.128;8.182;2024-01-30T10:01:37;19.23;;;11.65;;
12968;SDS011;6549;53.128;8.182;2024-01-30T10:04:39;19.30;;;11.50;;
12968;SDS011;6549;53.128;8.182;2024-01-30T10:07:39;17.60;;;10.90;;
12968;SDS011;6549;53.128;8.182;2024-01-30T10:10:50;15.35;;;10.75;;
12968;SDS011;6549;53.128;8.182;2024-01-30T10:13:50;16.92;;;11.10;;
12968;SDS011;6549;53.128;8.182;2024-01-30T10:16:51;13.98;;;10.63;;
12968;SDS011;6549;53.128;8.182;2024-01-30T10:19:51;17.38;;;10.98;;
12968;SDS011;6549;53.128;8.182;2024-01-30T10:22:52;17.13;;;10.63;;
12968;SDS011;6549;53.128;8.182;2024-01-30T10:25:52;19.58;;;11.32;;
12968;SDS011;6549;53.128;8.182;2024-01-30T10:28:52;14.57;;;10.38;;
12968;SDS011;6549;53.128;8.182;2024-01-30T10:32:02;16.65;;;10.32;;
12968;SDS011;6549;53.128;8.182;2024-01-30T10:35:03;17.20;;;11.43;;
12968;SDS011;6549;53.128;8.182;2024-01-30T10:38:04;17.50;;;11.30;;
12968;SDS011;6549;53.128;8.182;2024-01-30T10:41:08;14.68;;;11.00;;
12968;SDS011;6549;53.128;8.182;2024-01-30T10:44:15;19.33;;;11.32;;
12968;SDS011;6549;53.128;8.182;2024-01-30T10:47:21;16.85;;;12.05;;
12968;SDS011;6549;53.128;8.182;2024-01-30T10:50:26;16.13;;;10.98;;
12968;SDS011;6549;53.128;8.182;2024-01-30T10:53:27;17.08;;;11.45;;
12968;SDS011;6549;53.128;8.182;2024-01-30T10:56:30;19.60;;;10.90;;
12968;SDS011;6549;53.128;8.182;2024-01-30T10:59:33;18.02;;;11.15;;
12968;SDS011;6549;53.128;8.182;2024-01-30T11:02:33;15.02;;;10.57;;
12968;SDS011;6549;53.128;8.182;2024-01-30T11:05:34;14.77;;;10.93;;
12968;SDS011;6549;53.128;8.182;2024-01-30T11:08:35;16.15;;;10.43;;
12968;SDS011;6549;53.128;8.182;2024-01-30T11:15:13;17.00;;;11.15;;
12968;SDS011;6549;53.128;8.182;2024-01-30T11:18:28;15.98;;;10.20;;
12968;SDS011;6549;53.128;8.182;2024-01-30T11:21:30;15.00;;;10.65;;
12968;SDS011;6549;53.128;8.182;2024-01-30T11:24:30;18.83;;;10.95;;
12968;SDS011;6549;53.128;8.182;2024-01-30T11:27:30;16.27;;;10.77;;
12968;SDS011;6549;53.128;8.182;2024-01-30T11:30:31;16.10;;;10.63;;
12968;SDS011;6549;53.128;8.182;2024-01-30T11:33:32;15.77;;;10.88;;
12968;SDS011;6549;53.128;8.182;2024-01-30T11:36:34;14.65;;;9.70;;
12968;SDS011;6549;53.128;8.182;2024-01-30T11:39:37;18.83;;;10.27;;
12968;SDS011;6549;53.128;8.182;2024-01-30T11:42:37;14.85;;;10.02;;
12968;SDS011;6549;53.128;8.182;2024-01-30T11:45:39;17.10;;;9.77;;
12968;SDS011;6549;53.128;8.182;2024-01-30T11:48:40;15.35;;;10.63;;
12968;SDS011;6549;53.128;8.182;2024-01-30T11:51:41;18.15;;;10.77;;
12968;SDS011;6549;53.128;8.182;2024-01-30T11:54:41;16.20;;;10.07;;
12968;SDS011;6549;53.128;8.182;2024-01-30T11:57:42;17.27;;;10.98;;
12968;SDS011;6549;53.128;8.182;2024-01-30T12:00:52;18.80;;;10.67;;
12968;SDS011;6549;53.128;8.182;2024-01-30T12:03:56;17.00;;;10.07;;
12968;SDS011;6549;53.128;8.182;2024-01-30T12:06:57;13.95;;;10.43;;
12968;SDS011;6549;53.128;8.182;2024-01-30T12:09:57;18.70;;;11.20;;
12968;SDS011;6549;53.128;8.182;2024-01-30T12:12:57;16.23;;;10.10;;
12968;SDS011;6549;53.128;8.182;2024-01-30T12:15:58;16.45;;;10.90;;
12968;SDS011;6549;53.128;8.182;2024-01-30T12:19:00;19.20;;;11.10;;
12968;SDS011;6549;53.128;8.182;2024-01-30T12:22:02;19.67;;;11.57;;
12968;SDS011;6549;53.128;8.182;2024-01-30T12:25:03;14.32;;;10.20;;
12968;SDS011;6549;53.128;8.182;2024-01-30T12:28:10;19.67;;;10.80;;
12968;SDS011;6549;53.128;8.182;2024-01-30T12:31:11;16.27;;;10.90;;
12968;SDS011;6549;53.128;8.182;2024-01-30T12:34:13;17.35;;;10.77;;
12968;SDS011;6549;53.128;8.182;2024-01-30T12:37:16;17.75;;;11.05;;
12968;SDS011;6549;53.128;8.182;2024-01-30T12:40:21;19.15;;;10.60;;
12968;SDS011;6549;53.128;8.182;2024-01-30T12:43:22;18.00;;;11.18;;
12968;SDS011;6549;53.128;8.182;2024-01-30T12:46:28;15.07;;;9.95;;
12968;SDS011;6549;53.128;8.182;2024-01-30T12:49:29;19.33;;;10.98;;
12968;SDS011;6549;53.128;8.182;2024-01-30T12:52:29;17.10;;;10.80;;
12968;SDS011;6549;53.128;8.182;2024-01-30T12:55:29;18.35;;;10.15;;
12968;SDS011;6549;53.128;8.182;2024-01-30T12:58:30;16.48;;;10.38;;
12968;SDS011;6549;53.128;8.182;2024-01-30T13:01:30;19.25;;;11.43;;
12968;SDS011;6549;53.128;8.182;2024-01-30T13:04:31;22.65;;;11.00;;
12968;SDS011;6549;53.128;8.182;2024-01-30T13:07:31;17.25;;;10.60;;
12968;SDS011;6549;53.128;8.182;2024-01-30T13:10:32;17.23;;;11.15;;
12968;SDS011;6549;53.128;8.182;2024-01-30T13:13:32;16.73;;;10.77;;
12968;SDS011;6549;53.128;8.182;2024-01-30T13:16:33;18.98;;;10.50;;
12968;SDS011;6549;53.128;8.182;2024-01-30T13:19:33;18.17;;;10.85;;
12968;SDS011;6549;53.128;8.182;2024-01-30T13:22:33;14.43;;;9.75;;
12968;SDS011;6549;53.128;8.182;2024-01-30T13:25:34;16.70;;;10.40;;
12968;SDS011;6549;53.128;8.182;2024-01-30T13:28:34;17.55;;;11.15;;
12968;SDS011;6549;53.128;8.182;2024-01-30T13:31:34;16.45;;;10.98;;
12968;SDS011;6549;53.128;8.182;2024-01-30T13:34:35;16.80;;;10.70;;
12968;SDS011;6549;53.128;8.182;2024-01-30T13:37:35;15.23;;;10.73;;
12968;SDS011;6549;53.128;8.182;2024-01-30T13:40:35;16.63;;;11.15;;
12968;SDS011;6549;53.128;8.182;2024-01-30T13:43:36;16.15;;;10.90;;
12968;SDS011;6549;53.128;8.182;2024-01-30T13:46:36;15.43;;;10.70;;
12968;SDS011;6549;53.128;8.182;2024-01-30T13:49:37;15.15;;;10.77;;
12968;SDS011;6549;53.128;8.182;2024-01-30T13:52:37;15.48;;;10.93;;
12968;SDS011;6549;53.128;8.182;2024-01-30T13:55:37;16.85;;;10.93;;
12968;SDS011;6549;53.128;8.182;2024-01-30T13:58:39;17.15;;;10.60;;
12968;SDS011;6549;53.128;8.182;2024-01-30T14:01:39;14.88;;;10.93;;
12968;SDS011;6549;53.128;8.182;2024-01-30T14:04:40;13.45;;;10.05;;
12968;SDS011;6549;53.128;8.182;2024-01-30T14:07:40;16.63;;;10.52;;
12968;SDS011;6549;53.128;8.182;2024-01-30T14:10:42;15.73;;;10.02;;
12968;SDS011;6549;53.128;8.182;2024-01-30T14:13:43;15.20;;;10.35;;
12968;SDS011;6549;53.128;8.182;2024-01-30T14:16:43;15.38;;;10.10;;
12968;SDS011;6549;53.128;8.182;2024-01-30T14:19:44;16.75;;;10.95;;
12968;SDS011;6549;53.128;8.182;2024-01-30T14:22:45;14.50;;;9.15;;
12968;SDS011;6549;53.128;8.182;2024-01-30T14:25:45;14.40;;;9.65;;
12968;SDS011;6549;53.128;8.182;2024-01-30T14:28:46;16.58;;;9.60;;
12968;SDS011;6549;53.128;8.182;2024-01-30T14:31:46;14.02;;;9.65;;
12968;SDS011;6549;53.128;8.182;2024-01-30T14:34:46;15.73;;;10.05;;
12968;SDS011;6549;53.128;8.182;2024-01-30T14:37:47;14.27;;;9.55;;
12968;SDS011;6549;53.128;8.182;2024-01-30T14:40:47;16.85;;;10.27;;
12968;SDS011;6549;53.128;8.182;2024-01-30T14:43:47;16.70;;;9.90;;
12968;SDS011;6549;53.128;8.182;2024-01-30T14:46:48;15.52;;;9.80;;
12968;SDS011;6549;53.128;8.182;2024-01-30T14:49:49;18.55;;;10.30;;
12968;SDS011;6549;53.128;8.182;2024-01-30T14:52:49;14.57;;;9.52;;
12968;SDS011;6549;53.128;8.182;2024-01-30T14:55:49;18.15;;;9.82;;
12968;SDS011;6549;53.128;8.182;2024-01-30T14:58:50;16.42;;;9.77;;
12968;SDS011;6549;53.128;8.182;2024-01-30T15:01:50;15.02;;;10.02;;
12968;SDS011;6549;53.128;8.182;2024-01-30T15:04:51;14.73;;;9.75;;
12968;SDS011;6549;53.128;8.182;2024-01-30T15:07:51;14.48;;;10.27;;
12968;SDS011;6549;53.128;8.182;2024-01-30T15:10:51;16.50;;;9.98;;
12968;SDS011;6549;53.128;8.182;2024-01-30T15:13:52;17.30;;;10.20;;
12968;SDS011;6549;53.128;8.182;2024-01-30T15:16:53;16.42;;;10.38;;
12968;SDS011;6549;53.128;8.182;2024-01-30T15:19:53;18.33;;;10.25;;
12968;SDS011;6549;53.128;8.182;2024-01-30T15:22:53;17.58;;;10.82;;
12968;SDS011;6549;53.128;8.182;2024-01-30T15:25:54;17.00;;;10.05;;
12968;SDS011;6549;53.128;8.182;2024-01-30T15:28:54;17.05;;;10.02;;
12968;SDS011;6549;53.128;8.182;2024-01-30T15:31:54;15.50;;;8.73;;
12968;SDS011;6549;53.128;8.182;2024-01-30T15:34:55;11.88;;;8.05;;
12968;SDS011;6549;53.128;8.182;2024-01-30T15:37:56;11.98;;;7.43;;
12968;SDS011;6549;53.128;8.182;2024-01-30T15:40:57;12.10;;;7.15;;
12968;SDS011;6549;53.128;8.182;2024-01-30T15:43:57;8.10;;;6.50;;
12968;SDS011;6549;53.128;8.182;2024-01-30T15:46:58;10.98;;;6.35;;
12968;SDS011;6549;53.128;8.182;2024-01-30T15:49:59;14.45;;;6.15;;
12968;SDS011;6549;53.128;8.182;2024-01-30T15:52:59;9.27;;;5.55;;
12968;SDS011;6549;53.128;8.182;2024-01-30T15:55:59;10.20;;;5.80;;
12968;SDS011;6549;53.128;8.182;2024-01-30T15:59:00;10.77;;;5.55;;
12968;SDS011;6549;53.128;8.182;2024-01-30T16:02:01;7.68;;;4.40;;
12968;SDS011;6549;53.128;8.182;2024-01-30T16:05:02;8.23;;;4.22;;
12968;SDS011;6549;53.128;8.182;2024-01-30T16:08:02;7.47;;;3.92;;
12968;SDS011;6549;53.128;8.182;2024-01-30T16:11:03;5.68;;;3.70;;
12968;SDS011;6549;53.128;8.182;2024-01-30T16:14:03;7.97;;;3.58;;
12968;SDS011;6549;53.128;8.182;2024-01-30T16:17:03;6.72;;;3.65;;
12968;SDS011;6549;53.128;8.182;2024-01-30T16:20:04;5.90;;;3.13;;
12968;SDS011;6549;53.128;8.182;2024-01-30T16:23:05;4.85;;;2.90;;
12968;SDS011;6549;53.128;8.182;2024-01-30T16:26:06;5.32;;;3.22;;
12968;SDS011;6549;53.128;8.182;2024-01-30T16:29:06;5.95;;;3.00;;
12968;SDS011;6549;53.128;8.182;2024-01-30T16:32:08;5.47;;;2.83;;
12968;SDS011;6549;53.128;8.182;2024-01-30T16:35:08;4.47;;;2.78;;
12968;SDS011;6549;53.128;8.182;2024-01-30T16:38:08;6.05;;;2.80;;
12968;SDS011;6549;53.128;8.182;2024-01-30T16:41:09;3.90;;;2.95;;
12968;SDS011;6549;53.128;8.182;2024-01-30T16:44:09;4.47;;;2.90;;
12968;SDS011;6549;53.128;8.182;2024-01-30T16:47:09;5.50;;;3.15;;
12968;SDS011;6549;53.128;8.182;2024-01-30T16:50:10;5.07;;;3.33;;
12968;SDS011;6549;53.128;8.182;2024-01-30T16:53:10;7.65;;;3.92;;
12968;SDS011;6549;53.128;8.182;2024-01-30T16:56:10;9.98;;;3.72;;
12968;SDS011;6549;53.128;8.182;2024-01-30T16:59:11;7.35;;;4.60;;
12968;SDS011;6549;53.128;8.182;2024-01-30T17:02:11;9.00;;;3.40;;
12968;SDS011;6549;53.128;8.182;2024-01-30T17:05:11;9.70;;;2.95;;
12968;SDS011;6549;53.128;8.182;2024-01-30T17:08:12;5.15;;;2.70;;
12968;SDS011;6549;53.128;8.182;2024-01-30T17:11:12;5.22;;;2.40;;
12968;SDS011;6549;53.128;8.182;2024-01-30T17:14:13;4.20;;;2.40;;
12968;SDS011;6549;53.128;8.182;2024-01-30T17:17:14;3.53;;;2.30;;
12968;SDS011;6549;53.128;8.182;2024-01-30T17:20:14;3.45;;;2.30;;
12968;SDS011;6549;53.128;8.182;2024-01-30T17:23:15;2.72;;;2.30;;
12968;SDS011;6549;53.128;8.182;2024-01-30T17:26:15;4.55;;;2.80;;
12968;SDS011;6549;53.128;8.182;2024-01-30T17:29:15;6.85;;;2.75;;
12968;SDS011;6549;53.128;8.182;2024-01-30T17:32:16;6.50;;;3.15;;
12968;SDS011;6549;53.128;8.182;2024-01-30T17:35:16;4.90;;;3.10;;
12968;SDS011;6549;53.128;8.182;2024-01-30T17:38:16;7.50;;;3.58;;
12968;SDS011;6549;53.128;8.182;2024-01-30T17:41:17;6.50;;;3.58;;
12968;SDS011;6549;53.128;8.182;2024-01-30T17:44:17;6.57;;;3.40;;
12968;SDS011;6549;53.128;8.182;2024-01-30T17:47:19;6.22;;;3.70;;
12968;SDS011;6549;53.128;8.182;2024-01-30T17:50:19;9.10;;;4.13;;
12968;SDS011;6549;53.128;8.182;2024-01-30T17:53:19;8.68;;;4.55;;
12968;SDS011;6549;53.128;8.182;2024-01-30T17:56:21;6.57;;;4.22;;
12968;SDS011;6549;53.128;8.182;2024-01-30T17:59:21;8.80;;;4.60;;
12968;SDS011;6549;53.128;8.182;2024-01-30T18:02:23;8.85;;;4.30;;